sensor_id;sensor_type;location;lat;lon;timestamp;P1;durP1;ratioP1;P2;durP2;ratioP2
55270;SDS011;41132;47.162;9.470;2023-03-31T00:01:25;4.90;;;2.08;;
55270;SDS011;41132;47.162;9.470;2023-03-31T00:03:51;4.65;;;1.73;;
55270;SDS011;41132;47.162;9.470;2023-03-31T00:06:26;4.47;;;1.90;;
55270;SDS011;41132;47.162;9.470;2023-03-31T00:08:52;3.65;;;1.42;;
55270;SDS011;41132;47.162;9.470;2023-03-31T00:11:18;4.40;;;1.80;;
55270;SDS011;41132;47.162;9.470;2023-03-31T00:13:45;4.45;;;1.88;;
55270;SDS011;41132;47.162;9.470;2023-03-31T00:16:10;4.28;;;1.95;;
55270;SDS011;41132;47.162;9.470;2023-03-31T00:18:36;5.00;;;2.28;;
55270;SDS011;41132;47.162;9.470;2023-03-31T00:21:09;5.85;;;2.22;;
55270;SDS011;41132;47.162;9.470;2023-03-31T00:23:48;4.63;;;2.20;;
55270;SDS011;41132;47.162;9.470;2023-03-31T00:26:14;5.20;;;2.22;;
55270;SDS011;41132;47.162;9.470;2023-03-31T00:28:39;4.75;;;2.20;;
55270;SDS011;41132;47.162;9.470;2023-03-31T00:31:05;4.65;;;2.00;;
55270;SDS011;41132;47.162;9.470;2023-03-31T00:33:30;5.25;;;2.42;;
55270;SDS011;41132;47.162;9.470;2023-03-31T00:35:56;6.15;;;2.25;;
55270;SDS011;41132;47.162;9.470;2023-03-31T00:38:25;5.88;;;2.53;;
55270;SDS011;41132;47.162;9.470;2023-03-31T00:40:53;4.10;;;1.80;;
55270;SDS011;41132;47.162;9.470;2023-03-31T00:46:02;5.32;;;2.80;;
55270;SDS011;41132;47.162;9.470;2023-03-31T00:48:31;5.65;;;2.55;;
55270;SDS011;41132;47.162;9.470;2023-03-31T00:50:58;6.45;;;2.80;;
55270;SDS011;41132;47.162;9.470;2023-03-31T00:53:29;5.97;;;2.53;;
55270;SDS011;41132;47.162;9.470;2023-03-31T00:55:58;9.77;;;2.55;;
55270;SDS011;41132;47.162;9.470;2023-03-31T00:58:29;5.20;;;2.17;;
55270;SDS011;41132;47.162;9.470;2023-03-31T01:00:57;5.88;;;2.63;;
55270;SDS011;41132;47.162;9.470;2023-03-31T01:03:26;6.70;;;2.95;;
55270;SDS011;41132;47.162;9.470;2023-03-31T01:05:55;9.18;;;3.20;;
55270;SDS011;41132;47.162;9.470;2023-03-31T01:08:24;5.43;;;2.53;;
55270;SDS011;41132;47.162;9.470;2023-03-31T01:10:55;4.55;;;2.10;;
55270;SDS011;41132;47.162;9.470;2023-03-31T01:13:24;4.68;;;2.17;;
55270;SDS011;41132;47.162;9.470;2023-03-31T01:15:51;4.40;;;1.80;;
55270;SDS011;41132;47.162;9.470;2023-03-31T01:18:17;3.53;;;1.70;;
55270;SDS011;41132;47.162;9.470;2023-03-31T01:29:19;3.85;;;1.50;;
55270;SDS011;41132;47.162;9.470;2023-03-31T01:43:07;4.88;;;1.92;;
55270;SDS011;41132;47.162;9.470;2023-03-31T01:46:20;4.30;;;1.65;;
55270;SDS011;41132;47.162;9.470;2023-03-31T01:51:09;4.95;;;1.80;;
55270;SDS011;41132;47.162;9.470;2023-03-31T01:56:10;4.10;;;1.60;;
55270;SDS011;41132;47.162;9.470;2023-03-31T01:58:53;2.92;;;1.35;;
55270;SDS011;41132;47.162;9.470;2023-03-31T02:04:04;4.10;;;1.90;;
55270;SDS011;41132;47.162;9.470;2023-03-31T02:06:40;4.35;;;1.60;;
55270;SDS011;41132;47.162;9.470;2023-03-31T02:09:18;3.70;;;1.60;;
55270;SDS011;41132;47.162;9.470;2023-03-31T02:11:46;6.10;;;1.92;;
55270;SDS011;41132;47.162;9.470;2023-03-31T02:14:14;4.93;;;1.50;;
55270;SDS011;41132;47.162;9.470;2023-03-31T02:16:45;3.40;;;1.70;;
55270;SDS011;41132;47.162;9.470;2023-03-31T02:19:14;3.28;;;1.50;;
55270;SDS011;41132;47.162;9.470;2023-03-31T02:21:43;3.03;;;1.50;;
55270;SDS011;41132;47.162;9.470;2023-03-31T02:24:12;3.67;;;1.63;;
55270;SDS011;41132;47.162;9.470;2023-03-31T02:29:34;3.90;;;1.75;;
55270;SDS011;41132;47.162;9.470;2023-03-31T02:32:08;3.78;;;1.80;;
55270;SDS011;41132;47.162;9.470;2023-03-31T02:34:39;3.83;;;1.65;;
55270;SDS011;41132;47.162;9.470;2023-03-31T02:37:04;4.50;;;1.80;;
55270;SDS011;41132;47.162;9.470;2023-03-31T02:39:32;4.47;;;1.88;;
55270;SDS011;41132;47.162;9.470;2023-03-31T02:42:00;4.93;;;1.90;;
55270;SDS011;41132;47.162;9.470;2023-03-31T02:44:31;3.75;;;1.85;;
55270;SDS011;41132;47.162;9.470;2023-03-31T02:46:58;4.80;;;2.03;;
55270;SDS011;41132;47.162;9.470;2023-03-31T02:49:24;6.78;;;2.17;;
55270;SDS011;41132;47.162;9.470;2023-03-31T03:02:30;3.55;;;1.70;;
55270;SDS011;41132;47.162;9.470;2023-03-31T03:08:06;4.95;;;2.10;;
55270;SDS011;41132;47.162;9.470;2023-03-31T03:10:52;4.70;;;2.15;;
55270;SDS011;41132;47.162;9.470;2023-03-31T03:16:27;4.15;;;1.90;;
55270;SDS011;41132;47.162;9.470;2023-03-31T03:18:57;5.05;;;2.00;;
55270;SDS011;41132;47.162;9.470;2023-03-31T03:21:24;5.18;;;2.08;;
55270;SDS011;41132;47.162;9.470;2023-03-31T03:23:50;6.00;;;2.30;;
55270;SDS011;41132;47.162;9.470;2023-03-31T03:26:17;5.03;;;2.00;;
55270;SDS011;41132;47.162;9.470;2023-03-31T03:28:45;4.50;;;1.98;;
55270;SDS011;41132;47.162;9.470;2023-03-31T03:31:11;6.13;;;1.98;;
55270;SDS011;41132;47.162;9.470;2023-03-31T03:33:37;5.93;;;2.20;;
55270;SDS011;41132;47.162;9.470;2023-03-31T03:36:03;7.20;;;2.28;;
55270;SDS011;41132;47.162;9.470;2023-03-31T03:38:28;4.68;;;1.95;;
55270;SDS011;41132;47.162;9.470;2023-03-31T03:40:54;4.90;;;1.92;;
55270;SDS011;41132;47.162;9.470;2023-03-31T03:43:19;6.07;;;2.17;;
55270;SDS011;41132;47.162;9.470;2023-03-31T03:45:48;4.35;;;1.85;;
55270;SDS011;41132;47.162;9.470;2023-03-31T03:48:15;5.07;;;1.98;;
55270;SDS011;41132;47.162;9.470;2023-03-31T03:50:40;5.40;;;1.98;;
55270;SDS011;41132;47.162;9.470;2023-03-31T03:53:06;4.07;;;1.83;;
55270;SDS011;41132;47.162;9.470;2023-03-31T03:55:32;5.03;;;2.15;;
55270;SDS011;41132;47.162;9.470;2023-03-31T03:57:58;4.45;;;1.80;;
55270;SDS011;41132;47.162;9.470;2023-03-31T04:00:23;3.83;;;1.80;;
55270;SDS011;41132;47.162;9.470;2023-03-31T04:02:49;4.07;;;1.80;;
55270;SDS011;41132;47.162;9.470;2023-03-31T04:05:15;5.50;;;1.77;;
55270;SDS011;41132;47.162;9.470;2023-03-31T04:07:40;5.70;;;2.30;;
55270;SDS011;41132;47.162;9.470;2023-03-31T04:10:06;4.00;;;1.98;;
55270;SDS011;41132;47.162;9.470;2023-03-31T04:12:35;5.68;;;2.50;;
55270;SDS011;41132;47.162;9.470;2023-03-31T04:15:00;5.88;;;3.00;;
55270;SDS011;41132;47.162;9.470;2023-03-31T04:17:26;4.80;;;2.20;;
55270;SDS011;41132;47.162;9.470;2023-03-31T04:20:02;3.83;;;1.88;;
55270;SDS011;41132;47.162;9.470;2023-03-31T04:22:31;4.20;;;1.88;;
55270;SDS011;41132;47.162;9.470;2023-03-31T04:25:05;4.80;;;1.60;;
55270;SDS011;41132;47.162;9.470;2023-03-31T04:27:38;5.25;;;1.75;;
55270;SDS011;41132;47.162;9.470;2023-03-31T04:30:10;3.85;;;1.70;;
55270;SDS011;41132;47.162;9.470;2023-03-31T04:32:37;4.38;;;2.03;;
55270;SDS011;41132;47.162;9.470;2023-03-31T04:35:03;3.50;;;1.52;;
55270;SDS011;41132;47.162;9.470;2023-03-31T04:37:29;4.90;;;1.73;;
55270;SDS011;41132;47.162;9.470;2023-03-31T04:39:59;4.40;;;1.85;;
55270;SDS011;41132;47.162;9.470;2023-03-31T04:42:33;4.28;;;1.70;;
55270;SDS011;41132;47.162;9.470;2023-03-31T04:44:58;7.03;;;1.80;;
55270;SDS011;41132;47.162;9.470;2023-03-31T04:47:24;4.15;;;1.98;;
55270;SDS011;41132;47.162;9.470;2023-03-31T04:49:49;7.07;;;2.00;;
55270;SDS011;41132;47.162;9.470;2023-03-31T04:52:14;5.22;;;2.40;;
55270;SDS011;41132;47.162;9.470;2023-03-31T04:54:40;5.57;;;2.00;;
55270;SDS011;41132;47.162;9.470;2023-03-31T04:57:05;3.85;;;2.00;;
55270;SDS011;41132;47.162;9.470;2023-03-31T04:59:30;5.50;;;1.85;;
55270;SDS011;41132;47.162;9.470;2023-03-31T05:01:56;5.57;;;2.58;;
55270;SDS011;41132;47.162;9.470;2023-03-31T05:04:21;5.07;;;2.20;;
55270;SDS011;41132;47.162;9.470;2023-03-31T05:06:46;7.22;;;2.60;;
55270;SDS011;41132;47.162;9.470;2023-03-31T05:09:12;4.47;;;2.30;;
55270;SDS011;41132;47.162;9.470;2023-03-31T05:11:37;6.50;;;2.25;;
55270;SDS011;41132;47.162;9.470;2023-03-31T05:14:03;5.80;;;2.75;;
55270;SDS011;41132;47.162;9.470;2023-03-31T05:16:28;5.97;;;2.90;;
55270;SDS011;41132;47.162;9.470;2023-03-31T05:18:53;5.25;;;2.53;;
55270;SDS011;41132;47.162;9.470;2023-03-31T05:21:19;6.28;;;2.90;;
55270;SDS011;41132;47.162;9.470;2023-03-31T05:23:45;6.45;;;2.67;;
55270;SDS011;41132;47.162;9.470;2023-03-31T05:26:11;5.32;;;2.70;;
55270;SDS011;41132;47.162;9.470;2023-03-31T05:28:37;7.43;;;2.28;;
55270;SDS011;41132;47.162;9.470;2023-03-31T05:31:04;6.88;;;2.65;;
55270;SDS011;41132;47.162;9.470;2023-03-31T05:33:30;5.70;;;2.20;;
55270;SDS011;41132;47.162;9.470;2023-03-31T05:35:56;2.97;;;1.42;;
55270;SDS011;41132;47.162;9.470;2023-03-31T05:38:24;3.45;;;1.30;;
55270;SDS011;41132;47.162;9.470;2023-03-31T05:40:53;3.33;;;1.42;;
55270;SDS011;41132;47.162;9.470;2023-03-31T05:43:18;2.88;;;1.27;;
55270;SDS011;41132;47.162;9.470;2023-03-31T05:45:44;2.85;;;1.30;;
55270;SDS011;41132;47.162;9.470;2023-03-31T05:48:09;3.53;;;1.30;;
55270;SDS011;41132;47.162;9.470;2023-03-31T05:50:35;3.00;;;1.30;;
55270;SDS011;41132;47.162;9.470;2023-03-31T05:53:00;2.88;;;1.35;;
55270;SDS011;41132;47.162;9.470;2023-03-31T05:55:25;3.20;;;1.35;;
55270;SDS011;41132;47.162;9.470;2023-03-31T05:57:50;1.85;;;1.13;;
55270;SDS011;41132;47.162;9.470;2023-03-31T06:00:16;2.10;;;1.00;;
55270;SDS011;41132;47.162;9.470;2023-03-31T06:02:41;3.05;;;1.20;;
55270;SDS011;41132;47.162;9.470;2023-03-31T06:05:07;3.95;;;1.30;;
55270;SDS011;41132;47.162;9.470;2023-03-31T06:07:33;6.00;;;1.55;;
55270;SDS011;41132;47.162;9.470;2023-03-31T06:09:58;3.72;;;1.42;;
55270;SDS011;41132;47.162;9.470;2023-03-31T06:12:23;2.08;;;1.20;;
55270;SDS011;41132;47.162;9.470;2023-03-31T06:14:49;1.88;;;1.15;;
55270;SDS011;41132;47.162;9.470;2023-03-31T06:17:14;2.53;;;1.20;;
55270;SDS011;41132;47.162;9.470;2023-03-31T06:19:40;2.38;;;1.00;;
55270;SDS011;41132;47.162;9.470;2023-03-31T06:22:05;2.15;;;1.15;;
55270;SDS011;41132;47.162;9.470;2023-03-31T06:24:31;3.33;;;1.40;;
55270;SDS011;41132;47.162;9.470;2023-03-31T06:26:56;2.58;;;1.10;;
55270;SDS011;41132;47.162;9.470;2023-03-31T06:29:22;3.85;;;1.30;;
55270;SDS011;41132;47.162;9.470;2023-03-31T06:31:48;2.50;;;1.30;;
55270;SDS011;41132;47.162;9.470;2023-03-31T06:34:13;4.40;;;1.52;;
55270;SDS011;41132;47.162;9.470;2023-03-31T06:36:38;2.15;;;1.20;;
55270;SDS011;41132;47.162;9.470;2023-03-31T06:39:04;2.80;;;1.27;;
55270;SDS011;41132;47.162;9.470;2023-03-31T06:41:29;3.88;;;1.50;;
55270;SDS011;41132;47.162;9.470;2023-03-31T06:43:55;2.10;;;1.20;;
55270;SDS011;41132;47.162;9.470;2023-03-31T06:46:20;1.52;;;1.00;;
55270;SDS011;41132;47.162;9.470;2023-03-31T06:48:45;3.50;;;1.30;;
55270;SDS011;41132;47.162;9.470;2023-03-31T06:51:11;1.90;;;1.10;;
55270;SDS011;41132;47.162;9.470;2023-03-31T06:53:37;2.30;;;1.10;;
55270;SDS011;41132;47.162;9.470;2023-03-31T06:56:02;4.13;;;1.10;;
55270;SDS011;41132;47.162;9.470;2023-03-31T06:58:30;1.90;;;1.10;;
55270;SDS011;41132;47.162;9.470;2023-03-31T07:00:55;2.58;;;1.20;;
55270;SDS011;41132;47.162;9.470;2023-03-31T07:03:20;2.00;;;0.90;;
55270;SDS011;41132;47.162;9.470;2023-03-31T07:05:47;3.03;;;1.15;;
55270;SDS011;41132;47.162;9.470;2023-03-31T07:08:14;1.80;;;1.00;;
55270;SDS011;41132;47.162;9.470;2023-03-31T07:10:41;2.28;;;1.20;;
55270;SDS011;41132;47.162;9.470;2023-03-31T07:13:10;1.95;;;1.33;;
55270;SDS011;41132;47.162;9.470;2023-03-31T07:15:35;2.05;;;1.30;;
55270;SDS011;41132;47.162;9.470;2023-03-31T07:18:01;2.05;;;1.10;;
55270;SDS011;41132;47.162;9.470;2023-03-31T07:20:26;2.63;;;1.20;;
55270;SDS011;41132;47.162;9.470;2023-03-31T07:22:54;2.85;;;1.30;;
55270;SDS011;41132;47.162;9.470;2023-03-31T07:25:19;2.80;;;1.27;;
55270;SDS011;41132;47.162;9.470;2023-03-31T07:27:44;2.90;;;1.30;;
55270;SDS011;41132;47.162;9.470;2023-03-31T07:30:12;4.68;;;2.20;;
55270;SDS011;41132;47.162;9.470;2023-03-31T07:32:40;3.80;;;1.10;;
55270;SDS011;41132;47.162;9.470;2023-03-31T07:35:06;3.83;;;1.30;;
55270;SDS011;41132;47.162;9.470;2023-03-31T07:37:35;2.95;;;1.10;;
55270;SDS011;41132;47.162;9.470;2023-03-31T07:42:32;3.55;;;1.60;;
55270;SDS011;41132;47.162;9.470;2023-03-31T07:44:58;4.30;;;1.50;;
55270;SDS011;41132;47.162;9.470;2023-03-31T07:47:24;2.58;;;1.00;;
55270;SDS011;41132;47.162;9.470;2023-03-31T07:49:49;1.88;;;1.17;;
55270;SDS011;41132;47.162;9.470;2023-03-31T07:52:15;3.28;;;1.40;;
55270;SDS011;41132;47.162;9.470;2023-03-31T07:54:42;3.20;;;1.27;;
55270;SDS011;41132;47.162;9.470;2023-03-31T07:57:08;3.58;;;1.20;;
55270;SDS011;41132;47.162;9.470;2023-03-31T07:59:34;2.17;;;1.23;;
55270;SDS011;41132;47.162;9.470;2023-03-31T08:01:59;4.28;;;1.40;;
55270;SDS011;41132;47.162;9.470;2023-03-31T08:04:25;4.55;;;1.70;;
55270;SDS011;41132;47.162;9.470;2023-03-31T08:06:50;5.63;;;1.92;;
55270;SDS011;41132;47.162;9.470;2023-03-31T08:09:16;5.22;;;2.38;;
55270;SDS011;41132;47.162;9.470;2023-03-31T08:11:41;5.78;;;2.65;;
55270;SDS011;41132;47.162;9.470;2023-03-31T08:14:07;5.45;;;2.22;;
55270;SDS011;41132;47.162;9.470;2023-03-31T08:16:32;6.80;;;2.47;;
55270;SDS011;41132;47.162;9.470;2023-03-31T08:18:58;5.00;;;2.50;;
55270;SDS011;41132;47.162;9.470;2023-03-31T08:21:23;5.47;;;2.60;;
55270;SDS011;41132;47.162;9.470;2023-03-31T08:23:48;4.32;;;2.17;;
55270;SDS011;41132;47.162;9.470;2023-03-31T08:26:15;5.82;;;2.50;;
55270;SDS011;41132;47.162;9.470;2023-03-31T08:28:43;6.00;;;2.70;;
55270;SDS011;41132;47.162;9.470;2023-03-31T08:31:08;5.50;;;2.80;;
55270;SDS011;41132;47.162;9.470;2023-03-31T08:33:34;5.50;;;2.45;;
55270;SDS011;41132;47.162;9.470;2023-03-31T08:36:04;7.65;;;2.75;;
55270;SDS011;41132;47.162;9.470;2023-03-31T08:38:36;4.50;;;2.05;;
55270;SDS011;41132;47.162;9.470;2023-03-31T08:41:04;5.70;;;2.05;;
55270;SDS011;41132;47.162;9.470;2023-03-31T08:43:32;5.45;;;2.58;;
55270;SDS011;41132;47.162;9.470;2023-03-31T08:46:04;5.82;;;2.80;;
55270;SDS011;41132;47.162;9.470;2023-03-31T08:48:38;5.82;;;2.70;;
55270;SDS011;41132;47.162;9.470;2023-03-31T08:51:16;5.68;;;2.33;;
55270;SDS011;41132;47.162;9.470;2023-03-31T08:53:54;5.85;;;2.80;;
55270;SDS011;41132;47.162;9.470;2023-03-31T08:56:24;4.75;;;2.60;;
55270;SDS011;41132;47.162;9.470;2023-03-31T08:58:51;5.00;;;2.05;;
55270;SDS011;41132;47.162;9.470;2023-03-31T09:07:16;5.38;;;2.40;;
55270;SDS011;41132;47.162;9.470;2023-03-31T09:12:49;5.57;;;2.08;;
55270;SDS011;41132;47.162;9.470;2023-03-31T09:17:53;3.97;;;1.75;;
55270;SDS011;41132;47.162;9.470;2023-03-31T09:20:23;4.90;;;2.38;;
55270;SDS011;41132;47.162;9.470;2023-03-31T09:23:40;4.80;;;2.25;;
55270;SDS011;41132;47.162;9.470;2023-03-31T09:25:45;6.72;;;2.60;;
55270;SDS011;41132;47.162;9.470;2023-03-31T09:28:19;5.03;;;2.25;;
55270;SDS011;41132;47.162;9.470;2023-03-31T09:30:47;5.07;;;2.13;;
55270;SDS011;41132;47.162;9.470;2023-03-31T09:33:26;5.45;;;2.28;;
55270;SDS011;41132;47.162;9.470;2023-03-31T09:35:56;4.55;;;2.13;;
55270;SDS011;41132;47.162;9.470;2023-03-31T09:38:22;6.40;;;2.38;;
55270;SDS011;41132;47.162;9.470;2023-03-31T09:40:48;6.55;;;2.20;;
55270;SDS011;41132;47.162;9.470;2023-03-31T09:43:25;6.25;;;2.40;;
55270;SDS011;41132;47.162;9.470;2023-03-31T09:45:52;4.97;;;2.20;;
55270;SDS011;41132;47.162;9.470;2023-03-31T09:48:19;5.55;;;2.30;;
55270;SDS011;41132;47.162;9.470;2023-03-31T09:51:05;6.60;;;2.70;;
55270;SDS011;41132;47.162;9.470;2023-03-31T09:53:40;5.72;;;2.58;;
55270;SDS011;41132;47.162;9.470;2023-03-31T09:56:10;5.80;;;2.40;;
55270;SDS011;41132;47.162;9.470;2023-03-31T09:58:54;6.20;;;2.50;;
55270;SDS011;41132;47.162;9.470;2023-03-31T10:01:26;5.43;;;2.53;;
55270;SDS011;41132;47.162;9.470;2023-03-31T10:03:53;5.32;;;2.90;;
55270;SDS011;41132;47.162;9.470;2023-03-31T10:06:20;5.10;;;2.45;;
55270;SDS011;41132;47.162;9.470;2023-03-31T10:08:53;5.75;;;2.60;;
55270;SDS011;41132;47.162;9.470;2023-03-31T10:11:21;5.20;;;2.20;;
55270;SDS011;41132;47.162;9.470;2023-03-31T10:13:48;4.82;;;2.40;;
55270;SDS011;41132;47.162;9.470;2023-03-31T10:19:34;4.72;;;2.13;;
55270;SDS011;41132;47.162;9.470;2023-03-31T10:22:05;5.72;;;2.53;;
55270;SDS011;41132;47.162;9.470;2023-03-31T10:24:41;6.93;;;3.00;;
55270;SDS011;41132;47.162;9.470;2023-03-31T10:27:15;5.97;;;3.10;;
55270;SDS011;41132;47.162;9.470;2023-03-31T10:29:42;7.40;;;3.15;;
55270;SDS011;41132;47.162;9.470;2023-03-31T10:32:09;5.80;;;2.42;;
55270;SDS011;41132;47.162;9.470;2023-03-31T10:34:42;5.55;;;2.85;;
55270;SDS011;41132;47.162;9.470;2023-03-31T10:37:27;5.47;;;2.53;;
55270;SDS011;41132;47.162;9.470;2023-03-31T10:39:57;6.85;;;2.78;;
55270;SDS011;41132;47.162;9.470;2023-03-31T10:42:33;5.38;;;2.22;;
55270;SDS011;41132;47.162;9.470;2023-03-31T10:45:12;4.68;;;2.30;;
55270;SDS011;41132;47.162;9.470;2023-03-31T10:47:47;5.82;;;2.38;;
55270;SDS011;41132;47.162;9.470;2023-03-31T10:50:16;5.40;;;2.58;;
55270;SDS011;41132;47.162;9.470;2023-03-31T10:52:43;4.95;;;2.63;;
55270;SDS011;41132;47.162;9.470;2023-03-31T10:55:13;5.43;;;2.85;;
55270;SDS011;41132;47.162;9.470;2023-03-31T11:08:54;7.45;;;3.20;;
55270;SDS011;41132;47.162;9.470;2023-03-31T11:16:57;8.77;;;2.90;;
55270;SDS011;41132;47.162;9.470;2023-03-31T11:25:30;4.97;;;2.47;;
55270;SDS011;41132;47.162;9.470;2023-03-31T11:36:10;5.50;;;2.50;;
55270;SDS011;41132;47.162;9.470;2023-03-31T11:43:51;5.43;;;2.53;;
55270;SDS011;41132;47.162;9.470;2023-03-31T11:46:24;5.15;;;2.88;;
55270;SDS011;41132;47.162;9.470;2023-03-31T11:48:57;6.65;;;2.60;;
55270;SDS011;41132;47.162;9.470;2023-03-31T11:51:52;6.50;;;3.03;;
55270;SDS011;41132;47.162;9.470;2023-03-31T11:54:40;5.80;;;3.00;;
55270;SDS011;41132;47.162;9.470;2023-03-31T11:59:49;6.55;;;2.72;;
55270;SDS011;41132;47.162;9.470;2023-03-31T12:05:25;5.45;;;2.55;;
55270;SDS011;41132;47.162;9.470;2023-03-31T12:10:34;4.43;;;2.20;;
55270;SDS011;41132;47.162;9.470;2023-03-31T12:15:38;6.25;;;2.20;;
55270;SDS011;41132;47.162;9.470;2023-03-31T12:18:10;5.15;;;1.83;;
55270;SDS011;41132;47.162;9.470;2023-03-31T12:20:40;4.25;;;2.30;;
55270;SDS011;41132;47.162;9.470;2023-03-31T12:23:16;4.03;;;1.90;;
55270;SDS011;41132;47.162;9.470;2023-03-31T12:25:50;3.72;;;1.70;;
55270;SDS011;41132;47.162;9.470;2023-03-31T12:28:21;4.40;;;1.73;;
55270;SDS011;41132;47.162;9.470;2023-03-31T12:30:48;3.22;;;1.80;;
55270;SDS011;41132;47.162;9.470;2023-03-31T12:33:23;4.38;;;1.60;;
55270;SDS011;41132;47.162;9.470;2023-03-31T12:39:02;3.72;;;1.70;;
55270;SDS011;41132;47.162;9.470;2023-03-31T12:45:12;4.63;;;1.83;;
55270;SDS011;41132;47.162;9.470;2023-03-31T12:48:06;3.75;;;1.80;;
55270;SDS011;41132;47.162;9.470;2023-03-31T12:59:38;6.07;;;1.75;;
55270;SDS011;41132;47.162;9.470;2023-03-31T13:04:34;5.38;;;2.45;;
55270;SDS011;41132;47.162;9.470;2023-03-31T13:07:04;5.00;;;2.20;;
55270;SDS011;41132;47.162;9.470;2023-03-31T13:09:38;4.35;;;2.13;;
55270;SDS011;41132;47.162;9.470;2023-03-31T13:12:08;4.88;;;2.10;;
55270;SDS011;41132;47.162;9.470;2023-03-31T13:14:38;6.53;;;2.75;;
55270;SDS011;41132;47.162;9.470;2023-03-31T13:19:51;4.57;;;2.22;;
55270;SDS011;41132;47.162;9.470;2023-03-31T13:22:31;5.55;;;2.10;;
55270;SDS011;41132;47.162;9.470;2023-03-31T13:33:03;4.47;;;1.95;;
55270;SDS011;41132;47.162;9.470;2023-03-31T13:35:37;5.47;;;2.17;;
55270;SDS011;41132;47.162;9.470;2023-03-31T13:51:30;6.18;;;2.42;;
55270;SDS011;41132;47.162;9.470;2023-03-31T13:56:54;5.80;;;2.40;;
55270;SDS011;41132;47.162;9.470;2023-03-31T14:02:34;5.53;;;2.20;;
55270;SDS011;41132;47.162;9.470;2023-03-31T14:10:36;3.83;;;1.50;;
55270;SDS011;41132;47.162;9.470;2023-03-31T14:13:03;3.33;;;1.67;;
55270;SDS011;41132;47.162;9.470;2023-03-31T14:15:47;5.25;;;1.95;;
55270;SDS011;41132;47.162;9.470;2023-03-31T14:18:18;6.45;;;1.77;;
55270;SDS011;41132;47.162;9.470;2023-03-31T14:23:48;3.20;;;1.45;;
55270;SDS011;41132;47.162;9.470;2023-03-31T14:26:48;3.92;;;1.35;;
55270;SDS011;41132;47.162;9.470;2023-03-31T14:29:42;1.80;;;0.90;;
55270;SDS011;41132;47.162;9.470;2023-03-31T14:37:43;1.42;;;0.80;;
55270;SDS011;41132;47.162;9.470;2023-03-31T14:40:12;1.45;;;0.98;;
55270;SDS011;41132;47.162;9.470;2023-03-31T14:42:40;0.80;;;0.80;;
55270;SDS011;41132;47.162;9.470;2023-03-31T14:45:16;1.67;;;0.90;;
55270;SDS011;41132;47.162;9.470;2023-03-31T14:47:53;0.68;;;0.63;;
55270;SDS011;41132;47.162;9.470;2023-03-31T14:50:30;0.95;;;0.70;;
55270;SDS011;41132;47.162;9.470;2023-03-31T14:52:59;1.27;;;0.85;;
55270;SDS011;41132;47.162;9.470;2023-03-31T14:55:26;2.58;;;1.00;;
55270;SDS011;41132;47.162;9.470;2023-03-31T14:57:54;0.98;;;0.80;;
55270;SDS011;41132;47.162;9.470;2023-03-31T15:00:24;1.92;;;1.00;;
55270;SDS011;41132;47.162;9.470;2023-03-31T15:02:54;0.82;;;0.80;;
55270;SDS011;41132;47.162;9.470;2023-03-31T15:05:35;1.55;;;0.80;;
55270;SDS011;41132;47.162;9.470;2023-03-31T15:08:02;2.30;;;0.85;;
55270;SDS011;41132;47.162;9.470;2023-03-31T15:10:39;1.08;;;0.80;;
55270;SDS011;41132;47.162;9.470;2023-03-31T15:13:07;1.35;;;0.95;;
55270;SDS011;41132;47.162;9.470;2023-03-31T15:18:09;1.27;;;0.75;;
55270;SDS011;41132;47.162;9.470;2023-03-31T15:20:37;1.52;;;0.80;;
55270;SDS011;41132;47.162;9.470;2023-03-31T15:23:17;1.52;;;0.93;;
55270;SDS011;41132;47.162;9.470;2023-03-31T15:25:53;0.77;;;0.73;;
55270;SDS011;41132;47.162;9.470;2023-03-31T15:28:24;2.25;;;0.80;;
55270;SDS011;41132;47.162;9.470;2023-03-31T15:30:51;2.20;;;0.90;;
55270;SDS011;41132;47.162;9.470;2023-03-31T15:33:19;1.52;;;0.95;;
55270;SDS011;41132;47.162;9.470;2023-03-31T15:35:47;1.88;;;0.93;;
55270;SDS011;41132;47.162;9.470;2023-03-31T15:38:13;1.38;;;0.80;;
55270;SDS011;41132;47.162;9.470;2023-03-31T15:40:42;2.67;;;1.10;;
55270;SDS011;41132;47.162;9.470;2023-03-31T15:43:16;2.20;;;0.90;;
55270;SDS011;41132;47.162;9.470;2023-03-31T15:45:52;1.90;;;0.98;;
55270;SDS011;41132;47.162;9.470;2023-03-31T15:48:32;1.35;;;0.80;;
55270;SDS011;41132;47.162;9.470;2023-03-31T15:51:45;3.35;;;1.00;;
55270;SDS011;41132;47.162;9.470;2023-03-31T15:53:56;3.38;;;1.13;;
55270;SDS011;41132;47.162;9.470;2023-03-31T15:58:55;1.73;;;1.00;;
55270;SDS011;41132;47.162;9.470;2023-03-31T16:01:36;1.98;;;1.00;;
55270;SDS011;41132;47.162;9.470;2023-03-31T16:04:06;3.33;;;1.13;;
55270;SDS011;41132;47.162;9.470;2023-03-31T16:06:41;3.53;;;1.20;;
55270;SDS011;41132;47.162;9.470;2023-03-31T16:09:16;3.28;;;1.10;;
55270;SDS011;41132;47.162;9.470;2023-03-31T16:11:52;2.63;;;1.08;;
55270;SDS011;41132;47.162;9.470;2023-03-31T16:14:54;3.22;;;1.08;;
55270;SDS011;41132;47.162;9.470;2023-03-31T16:17:36;3.15;;;1.15;;
55270;SDS011;41132;47.162;9.470;2023-03-31T16:20:08;2.33;;;1.20;;
55270;SDS011;41132;47.162;9.470;2023-03-31T16:22:43;2.25;;;0.90;;
55270;SDS011;41132;47.162;9.470;2023-03-31T16:25:12;3.03;;;1.30;;
55270;SDS011;41132;47.162;9.470;2023-03-31T16:27:44;2.40;;;1.10;;
55270;SDS011;41132;47.162;9.470;2023-03-31T16:30:13;2.58;;;1.02;;
55270;SDS011;41132;47.162;9.470;2023-03-31T16:33:03;1.30;;;0.90;;
55270;SDS011;41132;47.162;9.470;2023-03-31T16:35:31;1.25;;;0.70;;
55270;SDS011;41132;47.162;9.470;2023-03-31T16:38:09;1.58;;;0.90;;
55270;SDS011;41132;47.162;9.470;2023-03-31T16:40:39;0.75;;;0.60;;
55270;SDS011;41132;47.162;9.470;2023-03-31T16:43:07;1.63;;;0.80;;
55270;SDS011;41132;47.162;9.470;2023-03-31T16:45:40;0.90;;;0.85;;
55270;SDS011;41132;47.162;9.470;2023-03-31T16:48:08;1.90;;;0.98;;
55270;SDS011;41132;47.162;9.470;2023-03-31T16:50:34;1.67;;;0.90;;
55270;SDS011;41132;47.162;9.470;2023-03-31T16:52:59;2.47;;;0.82;;
55270;SDS011;41132;47.162;9.470;2023-03-31T16:55:25;0.68;;;0.65;;
55270;SDS011;41132;47.162;9.470;2023-03-31T16:57:51;1.63;;;0.80;;
55270;SDS011;41132;47.162;9.470;2023-03-31T17:00:17;0.90;;;0.77;;
55270;SDS011;41132;47.162;9.470;2023-03-31T17:02:43;2.83;;;0.80;;
55270;SDS011;41132;47.162;9.470;2023-03-31T17:05:10;1.48;;;0.77;;
55270;SDS011;41132;47.162;9.470;2023-03-31T17:07:36;0.85;;;0.80;;
55270;SDS011;41132;47.162;9.470;2023-03-31T17:10:01;1.38;;;0.85;;
55270;SDS011;41132;47.162;9.470;2023-03-31T17:12:26;2.22;;;1.00;;
55270;SDS011;41132;47.162;9.470;2023-03-31T17:14:52;2.67;;;1.00;;
55270;SDS011;41132;47.162;9.470;2023-03-31T17:17:17;4.00;;;1.27;;
55270;SDS011;41132;47.162;9.470;2023-03-31T17:19:42;1.33;;;0.77;;
55270;SDS011;41132;47.162;9.470;2023-03-31T17:22:08;2.38;;;1.33;;
55270;SDS011;41132;47.162;9.470;2023-03-31T17:24:33;2.03;;;1.00;;
55270;SDS011;41132;47.162;9.470;2023-03-31T17:26:58;3.72;;;1.02;;
55270;SDS011;41132;47.162;9.470;2023-03-31T17:29:24;1.30;;;1.10;;
55270;SDS011;41132;47.162;9.470;2023-03-31T17:31:50;1.52;;;0.90;;
55270;SDS011;41132;47.162;9.470;2023-03-31T17:34:15;1.80;;;0.90;;
55270;SDS011;41132;47.162;9.470;2023-03-31T17:36:41;2.38;;;0.90;;
55270;SDS011;41132;47.162;9.470;2023-03-31T17:39:08;1.17;;;0.80;;
55270;SDS011;41132;47.162;9.470;2023-03-31T17:41:34;1.00;;;0.88;;
55270;SDS011;41132;47.162;9.470;2023-03-31T17:44:00;1.33;;;0.90;;
55270;SDS011;41132;47.162;9.470;2023-03-31T17:46:26;1.75;;;1.02;;
55270;SDS011;41132;47.162;9.470;2023-03-31T17:48:51;1.83;;;1.00;;
55270;SDS011;41132;47.162;9.470;2023-03-31T17:51:18;1.17;;;0.75;;
55270;SDS011;41132;47.162;9.470;2023-03-31T17:53:47;4.90;;;1.10;;
55270;SDS011;41132;47.162;9.470;2023-03-31T17:56:14;1.88;;;1.00;;
55270;SDS011;41132;47.162;9.470;2023-03-31T17:58:40;1.83;;;0.90;;
55270;SDS011;41132;47.162;9.470;2023-03-31T18:01:06;1.77;;;1.00;;
55270;SDS011;41132;47.162;9.470;2023-03-31T18:03:33;1.10;;;0.73;;